createdAt,value
2019-02-19T00:00:33.541Z,4.60
2019-02-19T00:01:46.769Z,4.60
2019-02-19T00:03:00.003Z,4.60
2019-02-19T00:04:13.222Z,4.60
2019-02-19T00:05:26.453Z,4.60
2019-02-19T00:06:39.673Z,4.70
2019-02-19T00:07:52.905Z,4.70
2019-02-19T00:09:06.137Z,4.60
2019-02-19T00:10:19.368Z,4.50
2019-02-19T00:11:32.594Z,4.60
2019-02-19T00:12:45.825Z,4.60
2019-02-19T00:13:59.938Z,4.70
2019-02-19T00:15:13.157Z,4.70
2019-02-19T00:16:26.403Z,4.80
2019-02-19T00:17:39.610Z,4.70
2019-02-19T00:18:52.853Z,4.70
2019-02-19T00:20:06.083Z,4.80
2019-02-19T00:21:19.305Z,4.80
2019-02-19T00:22:32.527Z,4.80
2019-02-19T00:23:45.774Z,4.80
2019-02-19T00:25:01.062Z,4.90
2019-02-19T00:26:13.377Z,4.90
2019-02-19T00:27:26.619Z,4.90
2019-02-19T00:28:39.919Z,4.90
2019-02-19T00:29:53.133Z,4.80
2019-02-19T00:31:06.370Z,4.80
2019-02-19T00:32:19.593Z,4.80
2019-02-19T00:33:32.831Z,4.90
2019-02-19T00:34:46.060Z,4.80
2019-02-19T00:35:59.281Z,4.80
2019-02-19T00:37:12.513Z,4.80
2019-02-19T00:38:25.748Z,4.80
2019-02-19T00:39:40.121Z,4.90
2019-02-19T00:40:53.341Z,4.90
2019-02-19T00:42:06.634Z,4.90
2019-02-19T00:43:23.130Z,4.90
2019-02-19T00:44:36.356Z,4.90
2019-02-19T00:45:49.602Z,4.80
2019-02-19T00:47:02.892Z,4.90
2019-02-19T00:48:16.173Z,4.90
2019-02-19T00:49:29.646Z,4.90
2019-02-19T00:50:42.880Z,4.90
2019-02-19T00:51:56.105Z,4.80
2019-02-19T00:53:09.418Z,4.80
2019-02-19T00:54:22.660Z,4.80
2019-02-19T00:55:35.877Z,4.80
2019-02-19T00:56:49.097Z,4.80
2019-02-19T00:58:02.313Z,4.70
2019-02-19T00:59:15.549Z,4.70
2019-02-19T01:00:28.771Z,4.70
2019-02-19T01:01:42.010Z,4.70
2019-02-19T01:02:55.245Z,4.70
2019-02-19T01:04:08.472Z,4.80
2019-02-19T01:05:21.728Z,4.90
2019-02-19T01:06:34.997Z,4.90
2019-02-19T01:07:48.226Z,4.90
2019-02-19T01:09:01.461Z,4.90
2019-02-19T01:10:14.685Z,4.90
2019-02-19T01:11:27.908Z,4.90
2019-02-19T01:12:41.599Z,4.90
2019-02-19T01:13:54.830Z,4.90
2019-02-19T01:15:09.696Z,4.90
2019-02-19T01:16:22.918Z,5.00
2019-02-19T01:17:36.162Z,4.90
2019-02-19T01:18:49.388Z,4.90
2019-02-19T01:20:02.769Z,4.90
2019-02-19T01:21:15.994Z,4.90
2019-02-19T01:22:29.217Z,4.80
2019-02-19T01:23:42.470Z,4.90
2019-02-19T01:24:55.931Z,4.80
2019-02-19T01:26:09.162Z,4.80
2019-02-19T01:27:22.387Z,4.80
2019-02-19T01:28:35.668Z,4.80
2019-02-19T01:29:48.911Z,4.80
2019-02-19T01:31:02.126Z,4.80
2019-02-19T01:32:15.346Z,4.80
2019-02-19T01:33:28.581Z,4.80
2019-02-19T01:34:41.822Z,4.70
2019-02-19T01:35:55.044Z,4.70
2019-02-19T01:37:08.270Z,4.70
2019-02-19T01:38:21.494Z,4.70
2019-02-19T01:39:34.729Z,4.70
2019-02-19T01:40:47.960Z,4.70
2019-02-19T01:42:01.425Z,4.60
2019-02-19T01:43:14.654Z,4.70
2019-02-19T01:44:27.880Z,4.70
2019-02-19T01:45:41.565Z,4.70
2019-02-19T01:46:54.805Z,4.80
2019-02-19T01:48:08.038Z,4.80
2019-02-19T01:49:21.269Z,4.70
2019-02-19T01:50:34.489Z,4.70
2019-02-19T01:51:47.727Z,4.70
2019-02-19T01:53:00.945Z,4.70
2019-02-19T01:54:14.187Z,4.70
2019-02-19T01:55:27.406Z,4.80
2019-02-19T01:56:40.638Z,4.70
2019-02-19T01:57:53.874Z,4.80
2019-02-19T01:59:07.115Z,4.80
2019-02-19T02:00:20.329Z,4.80
2019-02-19T02:01:33.549Z,4.80
2019-02-19T02:02:46.773Z,4.80
2019-02-19T02:03:59.997Z,4.80
2019-02-19T02:05:13.238Z,4.80
2019-02-19T02:06:26.468Z,4.80
2019-02-19T02:07:39.762Z,4.80
2019-02-19T02:08:52.974Z,4.80
2019-02-19T02:10:07.250Z,4.90
2019-02-19T02:11:20.477Z,4.90
2019-02-19T02:12:33.703Z,4.90
2019-02-19T02:13:46.919Z,5.00
2019-02-19T02:15:00.266Z,5.00
2019-02-19T02:16:13.464Z,5.00
2019-02-19T02:17:26.686Z,5.00
2019-02-19T02:18:39.912Z,5.00
2019-02-19T02:19:53.134Z,5.10
2019-02-19T02:21:06.603Z,5.10
2019-02-19T02:22:19.829Z,5.20
2019-02-19T02:23:33.066Z,5.20
2019-02-19T02:24:46.294Z,5.20
2019-02-19T02:25:59.522Z,5.30
2019-02-19T02:27:12.781Z,5.30
2019-02-19T02:28:26.050Z,5.20
2019-02-19T02:29:40.568Z,5.30
2019-02-19T02:30:53.790Z,5.30
2019-02-19T02:32:07.015Z,5.30
2019-02-19T02:33:20.245Z,5.30
2019-02-19T02:34:33.553Z,5.30
2019-02-19T02:35:46.846Z,5.20
2019-02-19T02:37:00.072Z,5.20
2019-02-19T02:38:13.293Z,5.20
2019-02-19T02:39:26.521Z,5.20
2019-02-19T02:40:39.753Z,5.20
2019-02-19T02:41:52.978Z,5.10
2019-02-19T02:43:06.199Z,5.10
2019-02-19T02:44:19.427Z,5.10
2019-02-19T02:45:33.398Z,5.10
2019-02-19T02:46:46.609Z,5.00
2019-02-19T02:47:59.845Z,5.00
2019-02-19T02:49:13.070Z,5.00
2019-02-19T02:50:26.310Z,5.00
2019-02-19T02:51:39.531Z,5.00
2019-02-19T02:52:52.750Z,5.00
2019-02-19T02:54:05.973Z,4.90
2019-02-19T02:55:19.471Z,4.90
2019-02-19T02:56:32.855Z,4.90
2019-02-19T02:57:46.073Z,4.90
2019-02-19T02:58:59.307Z,4.80
2019-02-19T03:00:12.996Z,4.80
2019-02-19T03:01:26.222Z,4.90
2019-02-19T03:02:39.455Z,4.90
2019-02-19T03:03:52.730Z,4.90
2019-02-19T03:05:06.131Z,4.90
2019-02-19T03:06:21.003Z,4.90
2019-02-19T03:07:35.855Z,4.80
2019-02-19T03:08:49.086Z,4.80
2019-02-19T03:10:02.329Z,4.90
2019-02-19T03:11:15.566Z,4.90
2019-02-19T03:12:28.797Z,4.90
2019-02-19T03:13:42.022Z,4.80
2019-02-19T03:14:55.247Z,4.80
2019-02-19T03:16:08.476Z,4.80
2019-02-19T03:17:21.706Z,4.80
2019-02-19T03:18:34.933Z,4.80
2019-02-19T03:19:48.153Z,4.80
2019-02-19T03:21:01.383Z,4.80
2019-02-19T03:22:14.622Z,4.80
2019-02-19T03:23:28.803Z,4.80
2019-02-19T03:24:42.027Z,4.80
2019-02-19T03:25:55.273Z,4.80
2019-02-19T03:27:08.490Z,4.90
2019-02-19T03:28:21.725Z,4.90
2019-02-19T03:29:34.964Z,4.90
2019-02-19T03:30:48.190Z,4.90
2019-02-19T03:32:01.415Z,4.90
2019-02-19T03:33:14.660Z,4.90
2019-02-19T03:34:27.902Z,4.90
2019-02-19T03:35:41.137Z,4.80
2019-02-19T03:36:54.375Z,4.90
2019-02-19T03:38:08.163Z,4.90
2019-02-19T03:39:21.634Z,4.90
2019-02-19T03:40:34.877Z,4.80
2019-02-19T03:41:48.095Z,4.80
2019-02-19T03:43:01.335Z,4.70
2019-02-19T03:44:14.565Z,4.80
2019-02-19T03:45:27.813Z,4.80
2019-02-19T03:46:41.115Z,4.90
2019-02-19T03:47:54.342Z,4.90
2019-02-19T03:49:07.562Z,4.80
2019-02-19T03:50:20.780Z,4.80
2019-02-19T03:51:34.010Z,4.80
2019-02-19T03:52:47.243Z,4.90
2019-02-19T03:54:00.467Z,4.80
2019-02-19T03:55:13.766Z,4.80
2019-02-19T03:56:27.241Z,4.80
2019-02-19T03:57:40.457Z,4.80
2019-02-19T03:58:53.701Z,4.80
2019-02-19T04:00:08.049Z,4.80
2019-02-19T04:01:21.276Z,4.70
2019-02-19T04:02:34.502Z,4.80
2019-02-19T04:03:47.722Z,4.80
2019-02-19T04:05:00.950Z,4.80
2019-02-19T04:06:14.190Z,4.70
2019-02-19T04:07:27.426Z,4.70
2019-02-19T04:08:40.647Z,4.80
2019-02-19T04:09:53.873Z,4.80
2019-02-19T04:11:07.102Z,4.80
2019-02-19T04:12:20.325Z,4.70
2019-02-19T04:13:33.553Z,4.70
2019-02-19T04:14:46.793Z,4.80
2019-02-19T04:16:00.022Z,4.70
2019-02-19T04:17:13.257Z,4.70
2019-02-19T04:18:26.501Z,4.80
2019-02-19T04:19:39.726Z,4.80
2019-02-19T04:20:52.962Z,4.70
2019-02-19T04:22:06.453Z,4.70
2019-02-19T04:23:19.866Z,4.70
2019-02-19T04:24:33.094Z,4.70
2019-02-19T04:25:46.314Z,4.70
2019-02-19T04:26:59.553Z,4.60
2019-02-19T04:28:12.797Z,4.60
2019-02-19T04:29:26.087Z,4.60
2019-02-19T04:30:39.309Z,4.60
2019-02-19T04:31:52.546Z,4.60
2019-02-19T04:33:05.787Z,4.60
2019-02-19T04:34:19.002Z,4.60
2019-02-19T04:35:32.225Z,4.60
2019-02-19T04:36:45.490Z,4.60
2019-02-19T04:37:58.763Z,4.60
2019-02-19T04:39:11.994Z,4.50
2019-02-19T04:40:25.214Z,4.50
2019-02-19T04:41:38.442Z,4.60
2019-02-19T04:42:51.693Z,4.60
2019-02-19T04:44:04.914Z,4.50
2019-02-19T04:45:18.154Z,4.50
2019-02-19T04:46:31.912Z,4.40
2019-02-19T04:47:46.829Z,4.50
2019-02-19T04:49:00.057Z,4.50
2019-02-19T04:50:14.491Z,4.50
2019-02-19T04:51:27.719Z,4.50
2019-02-19T04:52:42.102Z,4.50
2019-02-19T04:53:55.329Z,4.50
2019-02-19T04:55:08.558Z,4.60
2019-02-19T04:56:21.790Z,4.60
2019-02-19T04:57:35.030Z,4.60
2019-02-19T04:58:48.265Z,4.60
2019-02-19T05:00:01.482Z,4.60
2019-02-19T05:01:14.706Z,4.60
2019-02-19T05:02:27.934Z,4.60
2019-02-19T05:03:41.162Z,4.60
2019-02-19T05:04:54.393Z,4.70
2019-02-19T05:06:07.624Z,4.70
2019-02-19T05:07:20.865Z,4.80
2019-02-19T05:08:34.111Z,4.60
2019-02-19T05:09:47.330Z,4.60
2019-02-19T05:11:00.553Z,4.60
2019-02-19T05:12:13.794Z,4.50
2019-02-19T05:13:27.017Z,4.50
2019-02-19T05:14:40.817Z,4.50
2019-02-19T05:15:54.042Z,4.50
2019-02-19T05:17:07.273Z,4.50
2019-02-19T05:18:22.144Z,4.50
2019-02-19T05:19:35.392Z,4.50
2019-02-19T05:20:50.793Z,4.50
2019-02-19T05:22:04.022Z,4.50
2019-02-19T05:23:17.247Z,4.60
2019-02-19T05:24:33.491Z,4.50
2019-02-19T05:25:46.730Z,4.50
2019-02-19T05:27:02.339Z,4.40
2019-02-19T05:28:15.589Z,4.40
2019-02-19T05:29:28.794Z,4.40
2019-02-19T05:30:43.087Z,4.50
2019-02-19T05:31:56.438Z,4.40
2019-02-19T05:33:09.666Z,4.40
2019-02-19T05:34:22.890Z,4.40
2019-02-19T05:35:36.142Z,4.50
2019-02-19T05:36:49.373Z,4.50
2019-02-19T05:38:02.604Z,4.50
2019-02-19T05:39:15.842Z,4.40
2019-02-19T05:40:29.069Z,4.30
2019-02-19T05:41:42.321Z,4.30
2019-02-19T05:42:55.537Z,4.30
2019-02-19T05:44:08.765Z,4.30
2019-02-19T05:45:22.008Z,4.30
2019-02-19T05:46:35.219Z,4.30
2019-02-19T05:47:48.468Z,4.30
2019-02-19T05:49:01.693Z,4.20
2019-02-19T05:50:14.921Z,4.30
2019-02-19T05:51:28.143Z,4.20
2019-02-19T05:52:41.395Z,4.30
2019-02-19T05:53:54.618Z,4.20
2019-02-19T05:55:11.165Z,4.20
2019-02-19T05:56:24.466Z,4.20
2019-02-19T05:57:37.708Z,4.20
2019-02-19T05:58:51.006Z,4.20
2019-02-19T06:00:07.110Z,4.20
2019-02-19T06:01:20.346Z,4.20
2019-02-19T06:02:33.575Z,4.20
2019-02-19T06:03:46.801Z,4.20
2019-02-19T06:05:00.045Z,4.20
2019-02-19T06:06:13.324Z,4.20
2019-02-19T06:07:26.553Z,4.10
2019-02-19T06:08:39.783Z,4.20
2019-02-19T06:09:53.002Z,4.20
2019-02-19T06:11:06.245Z,4.10
2019-02-19T06:12:19.477Z,4.10
2019-02-19T06:13:32.707Z,4.20
2019-02-19T06:14:45.924Z,4.10
2019-02-19T06:15:59.150Z,4.20
2019-02-19T06:17:12.386Z,4.20
2019-02-19T06:18:25.622Z,4.20
2019-02-19T06:19:38.859Z,4.10
2019-02-19T06:20:52.091Z,4.10
2019-02-19T06:22:05.334Z,4.10
2019-02-19T06:23:18.570Z,4.10
2019-02-19T06:24:31.789Z,4.10
2019-02-19T06:25:45.030Z,4.10
2019-02-19T06:26:59.886Z,4.10
2019-02-19T06:28:13.122Z,4.10
2019-02-19T06:29:26.349Z,4.10
2019-02-19T06:30:39.570Z,4.10
2019-02-19T06:31:52.795Z,4.20
2019-02-19T06:33:06.730Z,4.20
2019-02-19T06:34:19.950Z,4.20
2019-02-19T06:35:33.183Z,4.20
2019-02-19T06:36:46.401Z,4.30
2019-02-19T06:38:00.206Z,4.20
2019-02-19T06:39:13.429Z,4.20
2019-02-19T06:40:28.908Z,4.20
2019-02-19T06:41:43.100Z,4.20
2019-02-19T06:42:56.335Z,4.20
2019-02-19T06:44:09.908Z,4.20
2019-02-19T06:45:23.130Z,4.20
2019-02-19T06:46:36.357Z,4.20
2019-02-19T06:47:49.599Z,4.30
2019-02-19T06:49:04.445Z,4.30
2019-02-19T06:50:17.906Z,4.30
2019-02-19T06:51:31.254Z,4.40
2019-02-19T06:52:44.482Z,4.30
2019-02-19T06:53:57.712Z,4.40
2019-02-19T06:55:10.949Z,4.40
2019-02-19T06:56:24.178Z,4.40
2019-02-19T06:57:37.396Z,4.40
2019-02-19T06:58:51.366Z,4.30
2019-02-19T07:00:07.764Z,4.30
2019-02-19T07:01:22.664Z,4.20
2019-02-19T07:02:37.529Z,4.30
2019-02-19T07:03:55.094Z,4.40
2019-02-19T07:05:09.975Z,4.40
2019-02-19T07:06:23.201Z,4.50
2019-02-19T07:07:36.453Z,4.60
2019-02-19T07:08:49.677Z,4.50
2019-02-19T07:10:03.178Z,4.60
2019-02-19T07:11:16.517Z,4.70
2019-02-19T07:12:29.741Z,4.80
2019-02-19T07:13:42.976Z,4.80
2019-02-19T07:14:56.209Z,4.90
2019-02-19T07:16:09.426Z,5.00
2019-02-19T07:17:24.799Z,4.90
2019-02-19T07:18:38.045Z,4.90
2019-02-19T07:19:51.267Z,4.90
2019-02-19T07:21:04.493Z,4.90
2019-02-19T07:22:17.722Z,5.00
2019-02-19T07:23:30.955Z,5.00
2019-02-19T07:24:44.196Z,5.00
2019-02-19T07:25:57.434Z,5.10
2019-02-19T07:27:10.717Z,5.20
2019-02-19T07:28:24.033Z,5.20
2019-02-19T07:29:37.257Z,5.30
2019-02-19T07:30:50.498Z,5.30
2019-02-19T07:32:03.746Z,5.40
2019-02-19T07:33:16.970Z,5.50
2019-02-19T07:34:30.290Z,5.50
2019-02-19T07:35:43.766Z,5.60
2019-02-19T07:36:57.151Z,5.60
2019-02-19T07:38:10.360Z,5.70
2019-02-19T07:39:23.594Z,5.80
2019-02-19T07:40:36.835Z,5.90
2019-02-19T07:41:50.059Z,5.90
2019-02-19T07:43:03.295Z,5.90
2019-02-19T07:44:16.515Z,6.00
2019-02-19T07:45:29.750Z,6.10
2019-02-19T07:46:42.986Z,6.10
2019-02-19T07:47:56.206Z,6.20
2019-02-19T07:49:09.443Z,6.20
2019-02-19T07:50:24.858Z,6.20
2019-02-19T07:51:38.151Z,6.30
2019-02-19T07:52:51.407Z,6.30
2019-02-19T07:54:04.626Z,6.30
2019-02-19T07:55:17.894Z,6.40
2019-02-19T07:56:31.150Z,6.40
2019-02-19T07:57:44.381Z,6.50
2019-02-19T07:58:57.605Z,6.50
2019-02-19T08:00:12.997Z,6.60
2019-02-19T08:01:26.247Z,6.70
2019-02-19T08:02:39.485Z,6.80
2019-02-19T08:03:52.709Z,6.80
2019-02-19T08:05:06.114Z,6.90
2019-02-19T08:06:19.342Z,7.00
2019-02-19T08:07:32.569Z,7.00
2019-02-19T08:08:45.793Z,7.10
2019-02-19T08:09:59.013Z,7.10
2019-02-19T08:11:12.491Z,7.20
2019-02-19T08:12:26.294Z,7.30
2019-02-19T08:13:39.637Z,7.30
2019-02-19T08:14:52.883Z,7.40
2019-02-19T08:16:06.101Z,7.50
2019-02-19T08:17:19.330Z,7.60
2019-02-19T08:18:32.566Z,7.70
2019-02-19T08:19:48.757Z,7.70
2019-02-19T08:21:02.122Z,7.80
2019-02-19T08:22:15.355Z,7.80
2019-02-19T08:23:29.902Z,7.90
2019-02-19T08:24:43.299Z,8.00
2019-02-19T08:25:56.538Z,8.00
2019-02-19T08:27:10.007Z,8.00
2019-02-19T08:28:24.873Z,8.00
2019-02-19T08:29:38.118Z,8.00
2019-02-19T08:30:51.341Z,8.10
2019-02-19T08:32:04.565Z,8.10
2019-02-19T08:33:17.794Z,8.10
2019-02-19T08:34:31.022Z,8.10
2019-02-19T08:35:44.266Z,8.20
2019-02-19T08:36:57.495Z,8.20
2019-02-19T08:38:10.721Z,8.30
2019-02-19T08:39:23.949Z,8.30
2019-02-19T08:40:37.183Z,8.30
2019-02-19T08:41:50.417Z,8.40
2019-02-19T08:43:03.641Z,8.40
2019-02-19T08:44:16.871Z,8.50
2019-02-19T08:45:30.093Z,8.60
2019-02-19T08:46:43.346Z,8.60
2019-02-19T08:47:56.584Z,8.70
2019-02-19T08:49:09.805Z,8.80
2019-02-19T08:50:23.035Z,8.90
2019-02-19T08:51:36.257Z,8.90
2019-02-19T08:52:49.502Z,9.00
2019-02-19T08:54:02.742Z,9.10
2019-02-19T08:55:15.962Z,9.10
2019-02-19T08:56:29.203Z,9.20
2019-02-19T08:57:42.444Z,9.20
2019-02-19T08:58:55.670Z,9.20
2019-02-19T09:00:10.937Z,9.30
2019-02-19T09:01:24.169Z,9.30
2019-02-19T09:02:37.419Z,9.40
2019-02-19T09:03:50.653Z,9.50
2019-02-19T09:05:04.927Z,9.50
2019-02-19T09:06:18.157Z,9.50
2019-02-19T09:07:31.411Z,9.50
2019-02-19T09:08:44.643Z,9.60
2019-02-19T09:09:57.882Z,9.70
2019-02-19T09:11:11.112Z,9.70
2019-02-19T09:12:24.338Z,9.70
2019-02-19T09:13:37.566Z,9.80
2019-02-19T09:14:50.797Z,9.90
2019-02-19T09:16:04.025Z,9.90
2019-02-19T09:17:17.254Z,10.00
2019-02-19T09:18:30.482Z,10.10
2019-02-19T09:19:43.725Z,10.10
2019-02-19T09:20:56.961Z,10.20
2019-02-19T09:22:10.197Z,10.30
2019-02-19T09:23:23.435Z,10.30
2019-02-19T09:24:36.673Z,10.40
2019-02-19T09:25:49.910Z,10.50
2019-02-19T09:27:03.132Z,10.60
2019-02-19T09:28:16.378Z,10.60
2019-02-19T09:29:29.623Z,10.70
2019-02-19T09:30:42.898Z,10.60
2019-02-19T09:31:56.122Z,10.70
2019-02-19T09:33:09.349Z,10.70
2019-02-19T09:34:22.581Z,10.70
2019-02-19T09:35:36.519Z,10.80
2019-02-19T09:36:49.762Z,10.80
2019-02-19T09:38:02.985Z,10.80
2019-02-19T09:39:16.233Z,10.80
2019-02-19T09:40:29.529Z,10.80
2019-02-19T09:41:42.777Z,10.80
2019-02-19T09:42:55.993Z,10.80
2019-02-19T09:44:09.230Z,10.90
2019-02-19T09:45:22.457Z,10.90
2019-02-19T09:46:35.696Z,10.80
2019-02-19T09:47:48.921Z,10.90
2019-02-19T09:49:02.154Z,10.80
2019-02-19T09:50:15.389Z,10.90
2019-02-19T09:51:28.621Z,10.90
2019-02-19T09:52:41.878Z,10.90
2019-02-19T09:53:55.101Z,11.00
2019-02-19T09:55:08.404Z,11.00
2019-02-19T09:56:22.098Z,10.90
2019-02-19T09:57:35.411Z,11.00
2019-02-19T09:58:48.650Z,11.00
2019-02-19T10:00:01.891Z,11.00
2019-02-19T10:01:15.125Z,11.10
2019-02-19T10:02:28.373Z,11.00
2019-02-19T10:03:41.665Z,10.90
2019-02-19T10:04:54.909Z,11.00
2019-02-19T10:06:08.140Z,11.00
2019-02-19T10:07:21.370Z,11.00
2019-02-19T10:08:34.601Z,11.00
2019-02-19T10:09:47.825Z,11.10
2019-02-19T10:11:01.070Z,11.10
2019-02-19T10:12:14.308Z,11.20
2019-02-19T10:13:27.537Z,11.30
2019-02-19T10:14:40.778Z,11.30
2019-02-19T10:15:54.034Z,11.30
2019-02-19T10:17:07.274Z,11.20
2019-02-19T10:18:20.491Z,11.20
2019-02-19T10:19:33.722Z,11.30
2019-02-19T10:20:46.976Z,11.50
2019-02-19T10:22:00.205Z,11.50
2019-02-19T10:23:13.436Z,11.60
2019-02-19T10:24:26.663Z,11.70
2019-02-19T10:25:39.893Z,11.60
2019-02-19T10:26:53.137Z,11.70
2019-02-19T10:28:06.374Z,11.80
2019-02-19T10:29:20.566Z,11.80
2019-02-19T10:30:33.781Z,11.80
2019-02-19T10:31:47.251Z,11.80
2019-02-19T10:33:00.494Z,11.90
2019-02-19T10:34:13.732Z,11.80
2019-02-19T10:35:26.961Z,11.90
2019-02-19T10:36:40.196Z,11.90
2019-02-19T10:37:53.438Z,11.90
2019-02-19T10:39:08.310Z,11.90
2019-02-19T10:40:21.541Z,12.00
2019-02-19T10:41:34.778Z,12.10
2019-02-19T10:42:49.644Z,12.30
2019-02-19T10:44:02.936Z,12.40
2019-02-19T10:45:21.311Z,12.50
2019-02-19T10:46:34.553Z,12.60
2019-02-19T10:47:47.773Z,12.60
2019-02-19T10:49:02.401Z,12.70
2019-02-19T10:50:15.634Z,12.70
2019-02-19T10:51:28.863Z,12.70
2019-02-19T10:52:42.178Z,12.80
2019-02-19T10:53:55.410Z,12.70
2019-02-19T10:55:09.854Z,12.80
2019-02-19T10:56:23.095Z,12.80
2019-02-19T10:57:36.322Z,12.80
2019-02-19T10:58:49.559Z,12.80
2019-02-19T11:00:02.905Z,12.80
2019-02-19T11:01:16.125Z,12.90
2019-02-19T11:02:29.362Z,12.90
2019-02-19T11:03:42.604Z,12.80
2019-02-19T11:04:55.842Z,12.80
2019-02-19T11:06:09.089Z,12.90
2019-02-19T11:07:22.363Z,13.00
2019-02-19T11:08:35.627Z,13.10
2019-02-19T11:09:48.856Z,13.20
2019-02-19T11:11:02.120Z,13.30
2019-02-19T11:12:15.342Z,13.40
2019-02-19T11:13:28.573Z,13.30
2019-02-19T11:14:41.818Z,13.40
2019-02-19T11:15:55.058Z,13.40
2019-02-19T11:17:08.288Z,13.40
2019-02-19T11:18:28.075Z,13.40
2019-02-19T11:19:36.474Z,13.40
2019-02-19T11:20:49.951Z,13.30
2019-02-19T11:22:03.194Z,13.30
2019-02-19T11:23:16.418Z,13.40
2019-02-19T11:24:29.641Z,13.40
2019-02-19T11:25:42.883Z,13.50
2019-02-19T11:26:56.116Z,13.70
2019-02-19T11:28:09.349Z,13.90
2019-02-19T11:29:22.561Z,14.00
2019-02-19T11:30:35.792Z,14.00
2019-02-19T11:31:49.025Z,14.20
2019-02-19T11:33:02.252Z,14.20
2019-02-19T11:34:15.476Z,14.30
2019-02-19T11:35:28.709Z,14.20
2019-02-19T11:36:41.959Z,14.10
2019-02-19T11:37:55.186Z,14.00
2019-02-19T11:39:08.577Z,13.80
2019-02-19T11:40:21.810Z,13.70
2019-02-19T11:41:35.049Z,13.60
2019-02-19T11:42:48.285Z,13.50
2019-02-19T11:44:01.514Z,13.50
2019-02-19T11:45:15.779Z,13.30
2019-02-19T11:46:29.006Z,13.20
2019-02-19T11:47:42.246Z,13.00
2019-02-19T11:48:56.265Z,12.90
2019-02-19T11:50:11.419Z,12.80
2019-02-19T11:51:24.641Z,12.80
2019-02-19T11:52:37.870Z,12.80
2019-02-19T11:53:51.099Z,12.70
2019-02-19T11:55:05.565Z,12.70
2019-02-19T11:56:18.797Z,12.70
2019-02-19T11:57:32.037Z,12.70
2019-02-19T11:58:45.265Z,12.70
2019-02-19T11:59:58.565Z,12.70
2019-02-19T12:01:11.798Z,12.70
2019-02-19T12:02:32.711Z,12.60
2019-02-19T12:03:39.979Z,12.60
2019-02-19T12:04:53.291Z,12.70
2019-02-19T12:06:06.526Z,12.60
2019-02-19T12:07:19.755Z,12.60
2019-02-19T12:08:38.827Z,12.60
2019-02-19T12:09:47.974Z,12.60
2019-02-19T12:11:01.246Z,12.60
2019-02-19T12:12:14.477Z,12.70
2019-02-19T12:13:27.726Z,12.70
2019-02-19T12:14:40.960Z,12.70
2019-02-19T12:15:54.193Z,12.70
2019-02-19T12:17:08.710Z,12.70
2019-02-19T12:18:21.933Z,12.60
2019-02-19T12:19:35.185Z,12.60
2019-02-19T12:20:48.411Z,12.60
2019-02-19T12:22:02.908Z,12.60
2019-02-19T12:23:16.204Z,12.60
2019-02-19T12:24:29.436Z,12.70
2019-02-19T12:25:42.674Z,12.60
2019-02-19T12:26:55.910Z,12.70
2019-02-19T12:28:09.138Z,12.70
2019-02-19T12:29:22.364Z,12.60
2019-02-19T12:30:35.611Z,12.70
2019-02-19T12:31:48.837Z,12.70
2019-02-19T12:33:02.070Z,12.70
2019-02-19T12:34:15.299Z,12.60
2019-02-19T12:35:28.526Z,12.50
2019-02-19T12:36:41.765Z,12.60
2019-02-19T12:37:54.997Z,12.60
2019-02-19T12:39:08.234Z,12.60
2019-02-19T12:40:27.253Z,12.70
2019-02-19T12:41:40.503Z,12.70
2019-02-19T12:42:53.727Z,12.70
2019-02-19T12:44:06.972Z,12.80
2019-02-19T12:45:20.207Z,12.80
2019-02-19T12:46:33.450Z,12.90
2019-02-19T12:47:46.683Z,13.00
2019-02-19T12:48:59.914Z,13.10
2019-02-19T12:50:17.425Z,13.20
2019-02-19T12:51:30.665Z,13.30
2019-02-19T12:52:43.894Z,13.40
2019-02-19T12:53:57.126Z,13.70
2019-02-19T12:55:10.625Z,13.90
2019-02-19T12:56:23.870Z,14.10
2019-02-19T12:57:37.106Z,14.20
2019-02-19T12:58:50.343Z,14.20
2019-02-19T13:00:04.309Z,14.20
2019-02-19T13:01:17.557Z,14.10
2019-02-19T13:02:30.781Z,14.10
2019-02-19T13:03:44.021Z,14.10
2019-02-19T13:04:57.251Z,14.30
2019-02-19T13:06:10.496Z,14.60
2019-02-19T13:07:23.726Z,15.40
2019-02-19T13:08:36.963Z,15.90
2019-02-19T13:09:50.193Z,16.30
2019-02-19T13:11:03.421Z,16.20
2019-02-19T13:12:16.661Z,16.50
2019-02-19T13:13:29.925Z,16.80
2019-02-19T13:14:43.197Z,17.10
2019-02-19T13:15:56.429Z,17.10
2019-02-19T13:17:09.657Z,17.10
2019-02-19T13:18:22.894Z,17.00
2019-02-19T13:19:36.125Z,16.90
2019-02-19T13:20:49.351Z,16.70
2019-02-19T13:22:02.578Z,16.50
2019-02-19T13:23:15.810Z,16.40
2019-02-19T13:24:29.037Z,16.20
2019-02-19T13:25:42.273Z,15.90
2019-02-19T13:26:55.498Z,15.60
2019-02-19T13:28:08.728Z,15.10
2019-02-19T13:29:21.973Z,14.80
2019-02-19T13:30:35.201Z,14.60
2019-02-19T13:31:48.435Z,14.50
2019-02-19T13:33:01.666Z,14.40
2019-02-19T13:34:15.789Z,14.30
2019-02-19T13:35:29.033Z,14.20
2019-02-19T13:36:42.264Z,14.10
2019-02-19T13:37:55.493Z,14.20
2019-02-19T13:39:08.729Z,14.20
2019-02-19T13:40:21.962Z,14.30
2019-02-19T13:41:36.988Z,14.20
2019-02-19T13:42:50.329Z,14.30
2019-02-19T13:44:03.550Z,14.30
2019-02-19T13:45:16.781Z,14.40
2019-02-19T13:46:30.045Z,14.40
2019-02-19T13:47:43.280Z,14.50
2019-02-19T13:48:56.506Z,15.00
2019-02-19T13:50:12.984Z,16.00
2019-02-19T13:51:26.242Z,17.10
2019-02-19T13:52:41.120Z,17.50
2019-02-19T13:53:55.978Z,17.90
2019-02-19T13:55:10.850Z,17.50
2019-02-19T13:56:24.069Z,17.30
2019-02-19T13:57:37.312Z,17.70
2019-02-19T13:58:50.558Z,18.20
2019-02-19T14:00:04.314Z,18.70
2019-02-19T14:01:17.545Z,19.10
2019-02-19T14:02:30.786Z,19.50
2019-02-19T14:03:44.030Z,19.70
2019-02-19T14:04:57.266Z,19.30
2019-02-19T14:06:10.506Z,19.50
2019-02-19T14:07:23.733Z,19.80
2019-02-19T14:08:36.980Z,19.80
2019-02-19T14:09:50.201Z,19.30
2019-02-19T14:11:03.431Z,19.10
2019-02-19T14:12:16.663Z,18.80
2019-02-19T14:13:29.971Z,18.50
2019-02-19T14:14:44.845Z,17.70
2019-02-19T14:16:02.512Z,17.30
2019-02-19T14:17:15.874Z,16.80
2019-02-19T14:18:46.449Z,16.40
2019-02-19T14:20:01.317Z,15.90
2019-02-19T14:21:30.711Z,15.60
2019-02-19T14:22:57.671Z,16.10
2019-02-19T14:24:18.170Z,16.80
2019-02-19T14:25:33.050Z,17.50
2019-02-19T14:26:50.614Z,18.00
2019-02-19T14:28:05.549Z,18.60
2019-02-19T14:29:20.414Z,18.70
2019-02-19T14:30:41.042Z,18.90
2019-02-19T14:32:04.682Z,19.30
2019-02-19T14:33:28.585Z,19.70
2019-02-19T14:34:53.008Z,19.90
2019-02-19T14:36:13.579Z,19.90
2019-02-19T14:37:44.699Z,20.20
2019-02-19T14:38:59.578Z,19.80
2019-02-19T14:40:30.667Z,19.40
2019-02-19T14:41:55.086Z,19.30
2019-02-19T14:43:12.639Z,18.90
2019-02-19T14:44:36.238Z,18.80
2019-02-19T14:46:03.165Z,18.50
2019-02-19T14:47:34.168Z,18.00
2019-02-19T14:48:57.993Z,17.40
2019-02-19T14:50:29.250Z,16.80
2019-02-19T14:51:44.117Z,16.20
2019-02-19T14:52:58.993Z,15.90
2019-02-19T14:54:13.861Z,15.60
2019-02-19T14:55:28.737Z,15.50
2019-02-19T14:56:43.605Z,15.40
2019-02-19T14:58:01.220Z,15.30
2019-02-19T14:59:16.154Z,15.10
2019-02-19T15:00:39.577Z,15.00
2019-02-19T15:02:10.518Z,14.70
2019-02-19T15:03:25.397Z,14.50
2019-02-19T15:04:40.265Z,14.40
2019-02-19T15:06:06.917Z,14.30
2019-02-19T15:07:30.917Z,14.10
2019-02-19T15:08:51.435Z,14.00
2019-02-19T15:10:17.941Z,13.90
2019-02-19T15:11:38.473Z,13.80
2019-02-19T15:12:56.126Z,13.80
2019-02-19T15:14:19.654Z,13.90
2019-02-19T15:15:34.514Z,13.90
2019-02-19T15:17:05.628Z,14.10
2019-02-19T15:18:36.730Z,14.20
2019-02-19T15:20:07.898Z,14.10
2019-02-19T15:21:25.821Z,14.20
2019-02-19T15:22:43.191Z,14.20
2019-02-19T15:24:14.480Z,14.20
2019-02-19T15:25:30.990Z,14.30
2019-02-19T15:26:51.637Z,14.30
2019-02-19T15:28:06.511Z,14.30
2019-02-19T15:29:36.235Z,14.10
2019-02-19T15:30:53.530Z,13.90
2019-02-19T15:32:14.098Z,13.60
2019-02-19T15:33:44.829Z,13.50
2019-02-19T15:35:05.421Z,13.40
2019-02-19T15:36:23.242Z,13.30
2019-02-19T15:37:50.138Z,13.10
2019-02-19T15:39:08.177Z,13.10
2019-02-19T15:40:28.897Z,13.10
2019-02-19T15:41:43.773Z,13.00
2019-02-19T15:43:04.722Z,12.70
2019-02-19T15:44:22.542Z,12.80
2019-02-19T15:45:43.402Z,12.70
2019-02-19T15:47:07.030Z,12.70
2019-02-19T15:48:33.762Z,12.70
2019-02-19T15:50:00.227Z,12.70
2019-02-19T15:51:15.173Z,12.90
2019-02-19T15:52:32.705Z,12.90
2019-02-19T15:54:03.830Z,12.90
2019-02-19T15:55:21.650Z,13.00
2019-02-19T15:56:54.349Z,13.00
2019-02-19T15:58:12.193Z,13.00
2019-02-19T15:59:45.798Z,13.20
2019-02-19T16:01:16.977Z,13.30
2019-02-19T16:02:46.937Z,13.30
2019-02-19T16:04:07.598Z,13.30
2019-02-19T16:05:25.285Z,13.30
2019-02-19T16:06:43.221Z,13.20
2019-02-19T16:07:58.098Z,13.20
2019-02-19T16:09:12.986Z,13.20
2019-02-19T16:10:27.846Z,13.10
2019-02-19T16:11:45.630Z,13.00
2019-02-19T16:13:00.495Z,12.90
2019-02-19T16:14:16.891Z,12.90
2019-02-19T16:15:46.950Z,12.90